Time;durP1;ratioP1;P1;durP2;ratioP2;P2;SDS_P1;SDS_P2;PMS_P1;PMS_P2;Temp;Humidity;BMP_temperature;BMP_pressure;BME280_temperature;BME280_humidity;BME280_pressure;Samples;Min_cycle;Max_cycle;Signal;HPM_P1;HPM_P2
2022/04/18 00:01:11;;;;;;;25.47;13.10;;;;;;;;;;5027582;28;20178;-65
2022/04/18 00:03:36;;;;;;;24.88;12.35;;;;;;;;;;5018499;28;20335;-65
2022/04/18 00:06:02;;;;;;;24.75;13.02;;;;;;;;;;5023498;28;20174;-65
2022/04/18 00:08:27;;;;;;;22.37;12.87;;;;;;;;;;5029260;28;20216;-65
2022/04/18 00:10:53;;;;;;;24.95;12.50;;;;;;;;;;5025203;28;20178;-65
2022/04/18 00:13:18;;;;;;;24.57;12.87;;;;;;;;;;5026820;28;20699;-65
2022/04/18 00:15:43;;;;;;;20.10;11.67;;;;;;;;;;5027404;28;20285;-65
2022/04/18 00:18:09;;;;;;;20.50;11.63;;;;;;;;;;5028023;28;20358;-65
2022/04/18 00:20:34;;;;;;;23.27;11.98;;;;;;;;;;5026602;28;20182;-65
2022/04/18 00:22:59;;;;;;;21.20;12.30;;;;;;;;;;5014610;28;20549;-65
2022/04/18 00:25:25;;;;;;;23.70;12.20;;;;;;;;;;5026679;28;20638;-65
2022/04/18 00:27:50;;;;;;;23.33;12.73;;;;;;;;;;5023809;28;20186;-65
2022/04/18 00:30:16;;;;;;;21.90;11.75;;;;;;;;;;5026495;28;20193;-65
2022/04/18 00:32:41;;;;;;;23.37;11.83;;;;;;;;;;5027086;28;20190;-65
2022/04/18 00:35:07;;;;;;;23.70;11.70;;;;;;;;;;5023959;28;20195;-65
2022/04/18 00:37:36;;;;;;;20.50;11.90;;;;;;;;;;5024076;28;20505;-65
2022/04/18 00:40:02;;;;;;;21.27;11.80;;;;;;;;;;5028746;28;20268;-65
2022/04/18 00:42:27;;;;;;;22.83;12.37;;;;;;;;;;5024546;28;20232;-64
2022/04/18 00:44:53;;;;;;;20.92;11.68;;;;;;;;;;5029468;28;20501;-64
2022/04/18 00:47:18;;;;;;;21.07;12.17;;;;;;;;;;5021869;28;20552;-64
2022/04/18 00:49:43;;;;;;;21.48;11.60;;;;;;;;;;5025296;28;20181;-65
2022/04/18 00:52:09;;;;;;;20.37;11.13;;;;;;;;;;5009750;28;20269;-64
2022/04/18 00:54:34;;;;;;;23.33;12.00;;;;;;;;;;5020979;28;20615;-65
2022/04/18 00:57:01;;;;;;;20.27;11.40;;;;;;;;;;5019933;28;20182;-65
2022/04/18 00:59:30;;;;;;;24.80;12.30;;;;;;;;;;5027701;28;20178;-64
2022/04/18 01:01:56;;;;;;;19.17;11.60;;;;;;;;;;5023956;28;20759;-64
2022/04/18 01:04:21;;;;;;;21.10;11.97;;;;;;;;;;5026540;28;20193;-65
2022/04/18 01:06:47;;;;;;;21.10;11.83;;;;;;;;;;5027306;28;20182;-64
2022/04/18 01:09:12;;;;;;;22.30;12.77;;;;;;;;;;5026126;28;20196;-65
2022/04/18 01:11:37;;;;;;;21.73;12.53;;;;;;;;;;5023916;28;20733;-64
2022/04/18 01:14:03;;;;;;;19.63;11.47;;;;;;;;;;5019182;28;20183;-65
2022/04/18 01:16:28;;;;;;;22.23;11.93;;;;;;;;;;5022581;28;20201;-65
2022/04/18 01:18:56;;;;;;;23.30;11.50;;;;;;;;;;5022553;28;20201;-65
2022/04/18 01:21:21;;;;;;;23.80;11.23;;;;;;;;;;5026053;28;20178;-65
2022/04/18 01:23:47;;;;;;;20.90;11.73;;;;;;;;;;5022682;28;20509;-65
2022/04/18 01:29:01;;;;;;;20.90;11.77;;;;;;;;;;5022904;28;20664;-65
2022/04/18 01:31:27;;;;;;;20.63;11.60;;;;;;;;;;5015562;28;20221;-65
2022/04/18 01:33:53;;;;;;;22.60;11.43;;;;;;;;;;5021005;28;20182;-65
2022/04/18 01:36:18;;;;;;;21.83;12.30;;;;;;;;;;5020952;28;20583;-65
2022/04/18 01:38:44;;;;;;;23.23;12.07;;;;;;;;;;5026961;28;20181;-65
2022/04/18 01:41:09;;;;;;;18.87;11.73;;;;;;;;;;5027302;28;20254;-65
2022/04/18 01:43:34;;;;;;;23.37;11.67;;;;;;;;;;5024549;28;20233;-64
2022/04/18 01:46:00;;;;;;;25.43;12.00;;;;;;;;;;5024988;28;20208;-64
2022/04/18 01:48:25;;;;;;;21.70;11.90;;;;;;;;;;5019966;28;20677;-64
2022/04/18 01:50:50;;;;;;;21.97;12.17;;;;;;;;;;5020995;28;20202;-65
2022/04/18 01:53:16;;;;;;;21.90;11.33;;;;;;;;;;5026564;28;20246;-65
2022/04/18 01:55:41;;;;;;;24.30;12.17;;;;;;;;;;5026164;28;20210;-65
2022/04/18 01:58:08;;;;;;;16.57;11.53;;;;;;;;;;5025764;28;20642;-65
2022/04/18 02:00:34;;;;;;;23.00;11.83;;;;;;;;;;5025141;28;20189;-65
2022/04/18 02:02:59;;;;;;;21.93;11.27;;;;;;;;;;5023131;28;20189;-65
2022/04/18 02:05:25;;;;;;;25.37;11.53;;;;;;;;;;5027504;28;20447;-65
2022/04/18 02:07:50;;;;;;;22.83;11.30;;;;;;;;;;5026008;28;20189;-65
2022/04/18 02:10:15;;;;;;;22.73;11.63;;;;;;;;;;5024506;28;20555;-65
2022/04/18 02:12:41;;;;;;;21.33;11.27;;;;;;;;;;5018270;28;20237;-65
2022/04/18 02:15:07;;;;;;;21.53;11.63;;;;;;;;;;5027430;28;20213;-65
2022/04/18 02:17:32;;;;;;;23.10;11.47;;;;;;;;;;5023117;28;20190;-65
2022/04/18 02:19:57;;;;;;;20.97;11.43;;;;;;;;;;5026738;28;20182;-66
2022/04/18 02:22:23;;;;;;;20.40;11.37;;;;;;;;;;5026188;28;20209;-65
2022/04/18 02:24:49;;;;;;;23.37;11.23;;;;;;;;;;5026508;28;20311;-65
2022/04/18 02:27:15;;;;;;;21.03;10.97;;;;;;;;;;5024220;28;20587;-65
2022/04/18 02:29:41;;;;;;;24.77;12.03;;;;;;;;;;5019967;28;20598;-65
2022/04/18 02:34:51;;;;;;;20.07;10.90;;;;;;;;;;5023881;28;20249;-65
2022/04/18 02:37:16;;;;;;;24.80;12.40;;;;;;;;;;5026947;28;20215;-64
2022/04/18 02:39:41;;;;;;;19.53;10.93;;;;;;;;;;5021382;28;20645;-65
2022/04/18 02:42:08;;;;;;;22.10;11.33;;;;;;;;;;5029638;28;20215;-64
2022/04/18 02:44:34;;;;;;;25.03;11.80;;;;;;;;;;5026610;28;20219;-66
2022/04/18 02:46:59;;;;;;;26.90;11.80;;;;;;;;;;5024761;28;20265;-65
2022/04/18 02:49:25;;;;;;;21.17;11.53;;;;;;;;;;5027354;28;20327;-65
2022/04/18 02:51:50;;;;;;;22.40;11.53;;;;;;;;;;5027738;28;20215;-65
2022/04/18 02:54:15;;;;;;;22.83;11.17;;;;;;;;;;5027714;28;20209;-65
2022/04/18 02:56:41;;;;;;;20.07;11.77;;;;;;;;;;5027817;28;20186;-65
2022/04/18 02:59:06;;;;;;;24.33;12.47;;;;;;;;;;5030075;28;20186;-65
2022/04/18 03:01:31;;;;;;;21.60;12.13;;;;;;;;;;5027943;28;20186;-65
2022/04/18 03:03:57;;;;;;;24.77;12.13;;;;;;;;;;5028781;28;20202;-65
2022/04/18 03:06:22;;;;;;;22.73;12.20;;;;;;;;;;5029481;28;20689;-65
2022/04/18 03:08:47;;;;;;;23.73;12.60;;;;;;;;;;5027213;28;20181;-66
2022/04/18 03:11:13;;;;;;;22.23;11.40;;;;;;;;;;5024672;28;20186;-65
2022/04/18 03:13:44;;;;;;;22.77;11.93;;;;;;;;;;5027195;28;20273;-65
2022/04/18 03:16:12;;;;;;;21.27;12.00;;;;;;;;;;5027718;28;20653;-65
2022/04/18 03:18:38;;;;;;;21.27;12.13;;;;;;;;;;5028221;28;20210;-64
2022/04/18 03:21:04;;;;;;;23.97;12.23;;;;;;;;;;5024326;28;20301;-64
2022/04/18 03:23:30;;;;;;;24.93;11.87;;;;;;;;;;5026565;28;20186;-65
2022/04/18 03:25:56;;;;;;;23.77;12.00;;;;;;;;;;5028472;28;20678;-65
2022/04/18 03:28:22;;;;;;;25.00;12.23;;;;;;;;;;5026030;28;20230;-65
2022/04/18 03:30:48;;;;;;;22.77;12.93;;;;;;;;;;5026976;28;20471;-65
2022/04/18 03:33:13;;;;;;;20.60;12.07;;;;;;;;;;5023988;28;20198;-65
2022/04/18 03:39:50;;;;;;;22.80;13.00;;;;;;;;;;5014032;28;20214;-65
2022/04/18 03:41:08;;;;;;;24.03;11.80;;;;;;;;;;5029622;28;20677;-65
2022/04/18 03:43:34;;;;;;;24.37;12.27;;;;;;;;;;5015512;28;20214;-65
2022/04/18 03:46:00;;;;;;;22.63;12.00;;;;;;;;;;5024878;28;20842;-65
2022/04/18 03:48:25;;;;;;;22.00;11.63;;;;;;;;;;5022534;28;20201;-65
2022/04/18 03:50:50;;;;;;;24.93;12.33;;;;;;;;;;5027583;28;20185;-65
2022/04/18 03:53:16;;;;;;;25.70;12.53;;;;;;;;;;5025473;28;20194;-65
2022/04/18 03:55:41;;;;;;;23.10;11.73;;;;;;;;;;5027400;28;20204;-65
2022/04/18 03:58:06;;;;;;;26.93;13.40;;;;;;;;;;5027810;28;20557;-65
2022/04/18 04:00:33;;;;;;;22.03;12.03;;;;;;;;;;5025715;28;20263;-65
2022/04/18 04:02:59;;;;;;;22.20;12.27;;;;;;;;;;5026666;28;20659;-65
2022/04/18 04:05:24;;;;;;;23.17;13.23;;;;;;;;;;5028436;28;20178;-65
2022/04/18 04:07:49;;;;;;;28.67;12.13;;;;;;;;;;5028212;28;20178;-65
2022/04/18 04:10:15;;;;;;;27.07;13.07;;;;;;;;;;5027700;28;20189;-65
2022/04/18 04:12:40;;;;;;;23.83;12.73;;;;;;;;;;5027246;28;20234;-65
2022/04/18 04:15:06;;;;;;;23.33;12.23;;;;;;;;;;5028259;28;20536;-65
2022/04/18 04:17:31;;;;;;;23.90;12.10;;;;;;;;;;5024598;28;20182;-65
2022/04/18 04:19:57;;;;;;;24.37;13.27;;;;;;;;;;5024813;28;20252;-65
2022/04/18 04:22:22;;;;;;;23.43;12.10;;;;;;;;;;5027221;28;20190;-65
2022/04/18 04:24:48;;;;;;;26.83;12.60;;;;;;;;;;5024916;28;20184;-65
2022/04/18 04:27:13;;;;;;;22.97;12.77;;;;;;;;;;5024713;28;20200;-65
2022/04/18 04:29:38;;;;;;;23.53;12.67;;;;;;;;;;5026779;28;20186;-65
2022/04/18 04:32:04;;;;;;;26.50;13.23;;;;;;;;;;5023670;28;20201;-65
2022/04/18 04:34:29;;;;;;;21.67;12.40;;;;;;;;;;5023767;28;20661;-65
2022/04/18 04:36:55;;;;;;;23.07;11.97;;;;;;;;;;5028115;28;20193;-65
2022/04/18 04:39:20;;;;;;;19.43;11.30;;;;;;;;;;5022660;28;20198;-65
2022/04/18 04:41:45;;;;;;;25.57;12.57;;;;;;;;;;5026846;28;20255;-66
2022/04/18 04:44:10;;;;;;;24.70;13.27;;;;;;;;;;5025866;28;20506;-65
2022/04/18 04:46:36;;;;;;;22.07;11.87;;;;;;;;;;5020442;28;20194;-65
2022/04/18 04:49:02;;;;;;;26.07;12.93;;;;;;;;;;5021490;28;20190;-65
2022/04/18 04:51:28;;;;;;;29.47;13.53;;;;;;;;;;5017402;28;20228;-65
2022/04/18 04:53:53;;;;;;;25.43;14.17;;;;;;;;;;5021930;28;20619;-65
2022/04/18 04:56:21;;;;;;;22.27;12.77;;;;;;;;;;5025841;28;20263;-65
2022/04/18 04:58:46;;;;;;;25.20;12.13;;;;;;;;;;5035907;28;20198;-65
2022/04/18 05:01:12;;;;;;;26.23;12.97;;;;;;;;;;5013362;28;20174;-65
2022/04/18 05:03:37;;;;;;;19.73;11.20;;;;;;;;;;5023827;28;20661;-65
2022/04/18 05:06:03;;;;;;;23.73;12.70;;;;;;;;;;5027512;28;20174;-65
2022/04/18 05:08:28;;;;;;;23.80;12.40;;;;;;;;;;5025726;28;20189;-65
2022/04/18 05:10:55;;;;;;;25.03;12.60;;;;;;;;;;5023400;28;20189;-65
2022/04/18 05:13:22;;;;;;;23.37;12.37;;;;;;;;;;5027476;28;20301;-65
2022/04/18 05:15:47;;;;;;;22.03;11.30;;;;;;;;;;5026591;28;20214;-65
2022/04/18 05:18:13;;;;;;;19.07;11.00;;;;;;;;;;5011061;28;20829;-66
2022/04/18 05:20:39;;;;;;;21.57;11.53;;;;;;;;;;5024656;28;20217;-65
2022/04/18 05:23:04;;;;;;;24.10;12.33;;;;;;;;;;5025432;28;20179;-65
2022/04/18 05:25:30;;;;;;;20.07;11.63;;;;;;;;;;5026909;28;20189;-65
2022/04/18 05:27:55;;;;;;;25.90;12.27;;;;;;;;;;5025276;28;20189;-65
2022/04/18 05:30:21;;;;;;;21.97;12.00;;;;;;;;;;5009334;28;20565;-65
2022/04/18 05:32:46;;;;;;;20.77;11.73;;;;;;;;;;5017728;28;20299;-65
2022/04/18 05:35:11;;;;;;;19.97;12.20;;;;;;;;;;5011219;28;20236;-65
2022/04/18 05:37:37;;;;;;;25.97;12.03;;;;;;;;;;5024556;28;20194;-65
2022/04/18 05:40:02;;;;;;;20.97;11.77;;;;;;;;;;5025420;28;20186;-65
2022/04/18 05:42:28;;;;;;;18.20;11.30;;;;;;;;;;5022733;28;20362;-66
2022/04/18 05:44:53;;;;;;;23.07;12.03;;;;;;;;;;5014920;28;20189;-64
2022/04/18 05:47:18;;;;;;;21.20;11.50;;;;;;;;;;5022369;28;20269;-66
2022/04/18 05:49:44;;;;;;;21.30;11.70;;;;;;;;;;5026190;28;20215;-66
2022/04/18 05:52:09;;;;;;;19.70;11.47;;;;;;;;;;5016338;28;20190;-64
2022/04/18 05:54:35;;;;;;;23.90;11.53;;;;;;;;;;5023236;28;20208;-64
2022/04/18 05:57:03;;;;;;;23.70;11.27;;;;;;;;;;5022353;28;20725;-64
2022/04/18 05:59:28;;;;;;;21.20;11.40;;;;;;;;;;5021153;28;20193;-64
2022/04/18 06:01:53;;;;;;;27.73;11.87;;;;;;;;;;5022985;28;20182;-64
2022/04/18 06:04:18;;;;;;;19.57;11.37;;;;;;;;;;5021745;28;20185;-65
2022/04/18 06:06:44;;;;;;;20.73;11.27;;;;;;;;;;5024456;28;20673;-64
2022/04/18 06:09:09;;;;;;;24.30;11.77;;;;;;;;;;5021459;28;20228;-64
2022/04/18 06:11:35;;;;;;;23.23;12.17;;;;;;;;;;5023087;28;20257;-64
2022/04/18 06:14:00;;;;;;;19.80;11.37;;;;;;;;;;5022517;28;20216;-65
2022/04/18 06:16:25;;;;;;;21.77;11.13;;;;;;;;;;5026747;28;20225;-65
2022/04/18 06:18:51;;;;;;;18.27;11.00;;;;;;;;;;5029227;28;20185;-65
2022/04/18 06:21:16;;;;;;;19.73;11.37;;;;;;;;;;5026384;28;20215;-65
2022/04/18 06:23:41;;;;;;;18.00;11.03;;;;;;;;;;5026540;28;20184;-66
2022/04/18 06:26:07;;;;;;;19.83;11.23;;;;;;;;;;5028126;28;20205;-66
2022/04/18 06:28:32;;;;;;;20.87;11.63;;;;;;;;;;5026475;28;20266;-66
2022/04/18 06:30:57;;;;;;;20.83;11.53;;;;;;;;;;5020937;28;20601;-65
2022/04/18 06:33:23;;;;;;;19.83;10.70;;;;;;;;;;5024322;28;20459;-66
2022/04/18 06:35:48;;;;;;;22.53;11.23;;;;;;;;;;5026668;28;20246;-66
2022/04/18 06:38:14;;;;;;;17.40;11.10;;;;;;;;;;5024543;28;20199;-65
2022/04/18 06:40:39;;;;;;;23.60;10.87;;;;;;;;;;5023945;28;20278;-65
2022/04/18 06:43:04;;;;;;;17.73;10.00;;;;;;;;;;5027138;28;20522;-65
2022/04/18 06:45:31;;;;;;;18.13;10.47;;;;;;;;;;5024818;28;20689;-66
2022/04/18 06:47:56;;;;;;;14.47;9.37;;;;;;;;;;5025218;28;20217;-66
2022/04/18 06:50:22;;;;;;;18.27;11.00;;;;;;;;;;5015039;28;20288;-65
2022/04/18 06:52:49;;;;;;;20.70;10.30;;;;;;;;;;5027135;28;20293;-65
2022/04/18 06:55:15;;;;;;;15.90;9.77;;;;;;;;;;5026242;28;20252;-66
2022/04/18 06:57:41;;;;;;;18.87;10.60;;;;;;;;;;5027731;28;20579;-65
2022/04/18 07:00:07;;;;;;;18.10;10.00;;;;;;;;;;5027884;28;20303;-65
2022/04/18 07:02:32;;;;;;;20.13;11.13;;;;;;;;;;5025394;28;20198;-65
2022/04/18 07:04:58;;;;;;;18.77;10.23;;;;;;;;;;5027337;28;20246;-66
2022/04/18 07:07:23;;;;;;;16.15;9.27;;;;;;;;;;5027999;28;20193;-66
2022/04/18 07:09:49;;;;;;;17.27;10.30;;;;;;;;;;5025955;28;20332;-66
2022/04/18 07:12:14;;;;;;;16.88;9.70;;;;;;;;;;5027365;28;20230;-65
2022/04/18 07:14:41;;;;;;;16.13;9.95;;;;;;;;;;5020480;28;20839;-65
2022/04/18 07:17:07;;;;;;;18.45;9.73;;;;;;;;;;5027534;28;20506;-66
2022/04/18 07:19:33;;;;;;;16.05;9.32;;;;;;;;;;5029291;28;20212;-65
2022/04/18 07:21:58;;;;;;;15.60;9.98;;;;;;;;;;5026507;28;20617;-66
2022/04/18 07:24:24;;;;;;;13.88;8.38;;;;;;;;;;5024776;28;20189;-66
2022/04/18 07:26:49;;;;;;;16.27;8.80;;;;;;;;;;5024232;28;20178;-65
2022/04/18 07:29:15;;;;;;;15.85;8.15;;;;;;;;;;5028973;28;20193;-66
2022/04/18 07:31:41;;;;;;;15.13;7.60;;;;;;;;;;5024712;28;20205;-65
2022/04/18 07:34:06;;;;;;;13.32;7.90;;;;;;;;;;5027460;28;20220;-65
2022/04/18 07:36:32;;;;;;;14.25;6.88;;;;;;;;;;5026041;28;20194;-66
2022/04/18 07:38:57;;;;;;;13.10;6.70;;;;;;;;;;5025904;28;20605;-66
2022/04/18 07:41:25;;;;;;;10.98;6.10;;;;;;;;;;5025599;28;20174;-65
2022/04/18 07:43:51;;;;;;;11.00;5.90;;;;;;;;;;5028307;28;20189;-65
2022/04/18 07:46:17;;;;;;;12.95;5.85;;;;;;;;;;5024846;28;20228;-66
2022/04/18 07:48:44;;;;;;;8.63;5.50;;;;;;;;;;5024740;28;20190;-65
2022/04/18 07:53:53;;;;;;;10.38;5.38;;;;;;;;;;5027113;28;20203;-65
2022/04/18 07:56:20;;;;;;;13.05;5.15;;;;;;;;;;5025094;28;20198;-65
2022/04/18 07:58:46;;;;;;;13.75;5.88;;;;;;;;;;5028188;28;20506;-65
2022/04/18 08:01:11;;;;;;;9.25;5.43;;;;;;;;;;5018783;28;20234;-65
2022/04/18 08:03:37;;;;;;;10.90;5.40;;;;;;;;;;5025133;28;20729;-65
2022/04/18 08:06:03;;;;;;;9.48;5.43;;;;;;;;;;5026846;28;20194;-65
2022/04/18 08:08:29;;;;;;;11.43;5.60;;;;;;;;;;5026378;28;20227;-65
2022/04/18 08:10:54;;;;;;;6.88;4.88;;;;;;;;;;5025993;28;20190;-65
2022/04/18 08:13:19;;;;;;;11.88;5.10;;;;;;;;;;5023853;28;20229;-66
2022/04/18 08:15:45;;;;;;;10.77;5.13;;;;;;;;;;5023634;28;20215;-65
2022/04/18 08:18:11;;;;;;;10.00;5.25;;;;;;;;;;5025018;28;20510;-65
2022/04/18 08:20:36;;;;;;;8.95;5.93;;;;;;;;;;5025082;28;20174;-66
2022/04/18 08:23:02;;;;;;;9.18;5.30;;;;;;;;;;5025153;28;20179;-65
2022/04/18 08:25:27;;;;;;;13.02;5.32;;;;;;;;;;5026459;28;20182;-66
2022/04/18 08:27:52;;;;;;;8.57;5.10;;;;;;;;;;5026450;28;20193;-65
2022/04/18 08:30:18;;;;;;;9.43;4.85;;;;;;;;;;5022073;28;20206;-66
2022/04/18 08:32:43;;;;;;;9.43;5.03;;;;;;;;;;5023033;28;20582;-65
2022/04/18 08:35:10;;;;;;;12.18;5.30;;;;;;;;;;5024348;28;20229;-65
2022/04/18 08:37:36;;;;;;;8.77;5.22;;;;;;;;;;5023748;28;20182;-66
2022/04/18 08:40:07;;;;;;;11.60;5.68;;;;;;;;;;5024928;28;20575;-65
2022/04/18 08:42:35;;;;;;;10.32;5.90;;;;;;;;;;5024880;28;20511;-65
2022/04/18 08:45:06;;;;;;;8.93;5.95;;;;;;;;;;5025036;28;20216;-66
2022/04/18 08:53:02;;;;;;;8.27;5.68;;;;;;;;;;5026513;28;20260;-65
2022/04/18 08:55:29;;;;;;;10.90;6.10;;;;;;;;;;5025949;28;20209;-66
2022/04/18 08:57:54;;;;;;;12.00;6.07;;;;;;;;;;5022211;28;20677;-65
2022/04/18 09:00:19;;;;;;;8.63;5.30;;;;;;;;;;5026242;28;20178;-66
2022/04/18 09:02:45;;;;;;;14.15;6.65;;;;;;;;;;5025756;28;20182;-65
2022/04/18 09:05:11;;;;;;;8.70;5.60;;;;;;;;;;5025290;28;20182;-65
2022/04/18 09:07:41;;;;;;;7.85;4.70;;;;;;;;;;5022515;28;20449;-65
2022/04/18 09:10:07;;;;;;;7.97;4.32;;;;;;;;;;5025569;28;20178;-66
2022/04/18 09:12:32;;;;;;;5.80;4.13;;;;;;;;;;5021274;28;20674;-66
2022/04/18 09:14:58;;;;;;;8.25;4.60;;;;;;;;;;5020515;28;20237;-66
2022/04/18 09:17:31;;;;;;;7.53;4.45;;;;;;;;;;5022924;28;20178;-65
2022/04/18 09:20:04;;;;;;;7.05;3.90;;;;;;;;;;5026221;28;20181;-65
2022/04/18 09:22:29;;;;;;;8.65;4.47;;;;;;;;;;5022267;28;20198;-66
2022/04/18 09:24:54;;;;;;;7.25;3.90;;;;;;;;;;5026715;28;20189;-66
2022/04/18 09:27:29;;;;;;;6.20;4.07;;;;;;;;;;5022784;28;20182;-65
2022/04/18 09:30:10;;;;;;;7.53;4.38;;;;;;;;;;5025062;28;20747;-65
2022/04/18 09:32:36;;;;;;;7.15;3.65;;;;;;;;;;5025782;28;20182;-65
2022/04/18 09:35:04;;;;;;;7.80;4.00;;;;;;;;;;5025977;28;20357;-66
2022/04/18 09:37:31;;;;;;;6.35;3.58;;;;;;;;;;5023193;28;20181;-66
2022/04/18 09:39:56;;;;;;;4.95;3.30;;;;;;;;;;5025542;28;20604;-66
2022/04/18 09:42:27;;;;;;;6.82;3.92;;;;;;;;;;5023044;28;20217;-65
2022/04/18 09:44:53;;;;;;;7.10;3.95;;;;;;;;;;5024231;28;20174;-65
2022/04/18 09:47:20;;;;;;;5.72;3.60;;;;;;;;;;5021888;28;20688;-66
2022/04/18 09:49:47;;;;;;;9.18;4.22;;;;;;;;;;5022871;28;20577;-66
2022/04/18 09:52:17;;;;;;;6.90;4.10;;;;;;;;;;5025750;28;20182;-66
2022/04/18 09:54:50;;;;;;;5.07;3.42;;;;;;;;;;5024946;28;20514;-66
2022/04/18 09:57:23;;;;;;;6.35;4.07;;;;;;;;;;5010137;28;20182;-66
2022/04/18 09:59:50;;;;;;;5.57;3.65;;;;;;;;;;5023957;28;20267;-66
2022/04/18 10:02:16;;;;;;;5.38;3.38;;;;;;;;;;5021121;28;20183;-66
2022/04/18 10:04:42;;;;;;;6.13;3.35;;;;;;;;;;5022077;28;20265;-66
2022/04/18 10:07:08;;;;;;;5.75;3.63;;;;;;;;;;5020555;28;20186;-66
2022/04/18 10:09:33;;;;;;;6.85;3.67;;;;;;;;;;5020851;28;21628;-66
2022/04/18 10:12:00;;;;;;;7.63;4.03;;;;;;;;;;5021867;28;20720;-66
2022/04/18 10:14:25;;;;;;;5.45;3.45;;;;;;;;;;5021382;28;20181;-66
2022/04/18 10:16:52;;;;;;;8.20;3.60;;;;;;;;;;5022923;28;20265;-67
2022/04/18 10:19:43;;;;;;;5.75;3.80;;;;;;;;;;5023985;28;20646;-67
2022/04/18 10:22:37;;;;;;;5.13;3.40;;;;;;;;;;5023958;28;20189;-67
2022/04/18 10:25:14;;;;;;;13.05;4.30;;;;;;;;;;5023898;28;20284;-67
2022/04/18 10:27:48;;;;;;;9.88;3.03;;;;;;;;;;5019879;28;20250;-67
2022/04/18 10:30:15;;;;;;;8.23;3.50;;;;;;;;;;5024350;28;20286;-67
2022/04/18 10:32:41;;;;;;;10.35;3.50;;;;;;;;;;5024269;28;20186;-67
2022/04/18 10:35:07;;;;;;;4.40;3.10;;;;;;;;;;5024136;28;20213;-67
2022/04/18 10:37:32;;;;;;;5.63;3.55;;;;;;;;;;5022350;28;20266;-66
2022/04/18 10:40:04;;;;;;;8.07;3.70;;;;;;;;;;5023632;28;20596;-67
2022/04/18 10:42:34;;;;;;;5.03;3.45;;;;;;;;;;5020520;28;20213;-67
2022/04/18 10:45:31;;;;;;;6.88;3.10;;;;;;;;;;5025598;28;20162;-65
2022/04/18 10:47:58;;;;;;;14.60;4.63;;;;;;;;;;5011739;28;20237;-66
2022/04/18 10:50:41;;;;;;;36.65;5.25;;;;;;;;;;5023387;28;20302;-67
2022/04/18 10:53:21;;;;;;;6.93;3.50;;;;;;;;;;5021416;28;20307;-67
2022/04/18 10:55:53;;;;;;;4.95;3.38;;;;;;;;;;5020561;28;20233;-67
2022/04/18 10:58:33;;;;;;;6.68;3.25;;;;;;;;;;5022063;28;20247;-66
2022/04/18 11:01:00;;;;;;;5.22;3.58;;;;;;;;;;5019833;28;20179;-67
2022/04/18 11:03:35;;;;;;;3.97;3.17;;;;;;;;;;5027157;28;20186;-66
2022/04/18 11:06:16;;;;;;;4.30;3.17;;;;;;;;;;5030656;28;20173;-67
2022/04/18 11:08:56;;;;;;;4.40;3.28;;;;;;;;;;5027575;28;20208;-66
2022/04/18 11:11:21;;;;;;;5.05;3.45;;;;;;;;;;5024976;28;20182;-66
2022/04/18 11:13:47;;;;;;;5.82;3.53;;;;;;;;;;5026511;28;20272;-67
2022/04/18 11:16:22;;;;;;;5.50;3.10;;;;;;;;;;5020379;28;20237;-67
2022/04/18 11:19:07;;;;;;;4.68;3.45;;;;;;;;;;5029577;28;20564;-67
2022/04/18 11:21:58;;;;;;;6.68;3.10;;;;;;;;;;5024744;28;20183;-67
2022/04/18 11:24:43;;;;;;;5.47;3.03;;;;;;;;;;5029257;28;20201;-65
2022/04/18 11:27:13;;;;;;;19.98;3.80;;;;;;;;;;5024298;28;20540;-67
2022/04/18 11:29:40;;;;;;;4.75;3.10;;;;;;;;;;5020439;28;20192;-67
2022/04/18 11:32:07;;;;;;;6.00;3.25;;;;;;;;;;5027129;28;20682;-66
2022/04/18 11:34:34;;;;;;;5.43;3.33;;;;;;;;;;5026216;28;20178;-66
2022/04/18 11:37:03;;;;;;;5.18;3.35;;;;;;;;;;5026201;28;20174;-67
2022/04/18 11:39:49;;;;;;;6.03;3.35;;;;;;;;;;5024830;28;20198;-67
2022/04/18 11:42:16;;;;;;;11.95;3.88;;;;;;;;;;5029810;28;20186;-67
2022/04/18 11:44:44;;;;;;;5.00;3.42;;;;;;;;;;5029518;28;20178;-67
2022/04/18 11:47:14;;;;;;;7.03;3.45;;;;;;;;;;5025129;28;20171;-67
2022/04/18 11:49:41;;;;;;;6.22;3.92;;;;;;;;;;5028259;28;20534;-66
2022/04/18 11:52:17;;;;;;;5.97;3.47;;;;;;;;;;5027648;28;20219;-66
2022/04/18 11:55:14;;;;;;;8.43;3.38;;;;;;;;;;5026494;28;20205;-66
2022/04/18 11:57:42;;;;;;;5.63;3.25;;;;;;;;;;5018197;28;20288;-66
2022/04/18 12:00:16;;;;;;;7.13;2.92;;;;;;;;;;5028295;28;20509;-67
2022/04/18 12:08:12;;;;;;;5.45;3.42;;;;;;;;;;5024224;28;20240;-66
2022/04/18 12:10:42;;;;;;;8.73;3.95;;;;;;;;;;5028707;28;20211;-67
2022/04/18 12:13:10;;;;;;;6.40;3.90;;;;;;;;;;5026895;28;20308;-66
2022/04/18 12:15:37;;;;;;;8.77;5.53;;;;;;;;;;5026985;28;20276;-66
2022/04/18 12:18:14;;;;;;;7.05;3.85;;;;;;;;;;5019290;28;20578;-66
2022/04/18 12:20:42;;;;;;;5.22;3.72;;;;;;;;;;5020074;28;20178;-66
2022/04/18 12:23:09;;;;;;;5.40;3.90;;;;;;;;;;5019380;28;20333;-67
2022/04/18 12:25:34;;;;;;;5.10;3.72;;;;;;;;;;5026617;28;20178;-67
2022/04/18 12:28:05;;;;;;;4.97;3.60;;;;;;;;;;5022238;28;20202;-67
2022/04/18 12:30:31;;;;;;;6.88;3.80;;;;;;;;;;5023700;28;20221;-67
2022/04/18 12:33:14;;;;;;;5.38;3.47;;;;;;;;;;5025573;28;20756;-66
2022/04/18 12:35:46;;;;;;;6.75;4.18;;;;;;;;;;5022307;28;20237;-66
2022/04/18 12:38:12;;;;;;;4.60;3.60;;;;;;;;;;5021829;28;20178;-66
2022/04/18 12:40:40;;;;;;;4.13;3.72;;;;;;;;;;5021517;28;20182;-66
2022/04/18 12:43:13;;;;;;;4.85;3.63;;;;;;;;;;5018315;28;20646;-67
2022/04/18 12:45:47;;;;;;;5.25;3.67;;;;;;;;;;5026362;28;20268;-67
2022/04/18 12:48:13;;;;;;;6.90;3.50;;;;;;;;;;5016792;28;20639;-67
2022/04/18 12:50:39;;;;;;;4.47;3.50;;;;;;;;;;5024280;28;20185;-67
2022/04/18 12:53:04;;;;;;;5.28;3.58;;;;;;;;;;5020746;28;20285;-66
2022/04/18 12:55:30;;;;;;;5.50;3.58;;;;;;;;;;5022582;28;20682;-67
2022/04/18 12:57:57;;;;;;;125.43;9.38;;;;;;;;;;5021954;28;20178;-67
2022/04/18 13:00:23;;;;;;;139.23;10.80;;;;;;;;;;5026908;28;20190;-68
2022/04/18 13:02:57;;;;;;;6.22;4.05;;;;;;;;;;5019227;28;20232;-67
2022/04/18 13:05:26;;;;;;;5.53;3.45;;;;;;;;;;5015593;28;20186;-66
2022/04/18 13:07:52;;;;;;;6.25;3.30;;;;;;;;;;5027104;28;20717;-66
2022/04/18 13:10:26;;;;;;;14.32;3.55;;;;;;;;;;5022767;28;20210;-67
2022/04/18 13:13:19;;;;;;;4.57;3.10;;;;;;;;;;5025680;28;20272;-66
2022/04/18 13:15:46;;;;;;;5.90;3.70;;;;;;;;;;5015514;28;20643;-67
2022/04/18 13:18:18;;;;;;;5.55;3.38;;;;;;;;;;5025057;28;20177;-67
2022/04/18 13:20:45;;;;;;;4.95;3.40;;;;;;;;;;5022476;28;20182;-68
2022/04/18 13:23:10;;;;;;;5.90;3.50;;;;;;;;;;5023264;28;20402;-67
2022/04/18 13:25:36;;;;;;;4.45;3.10;;;;;;;;;;5021500;28;20454;-68
2022/04/18 13:28:06;;;;;;;6.40;3.65;;;;;;;;;;5022334;28;20600;-67
2022/04/18 13:30:34;;;;;;;4.32;3.67;;;;;;;;;;5025886;28;20210;-67
2022/04/18 13:32:59;;;;;;;4.70;3.10;;;;;;;;;;5024525;28;20197;-67
2022/04/18 13:35:24;;;;;;;5.22;3.60;;;;;;;;;;5023859;28;20206;-66
2022/04/18 13:37:51;;;;;;;5.72;3.50;;;;;;;;;;5022841;28;20178;-68
2022/04/18 13:40:17;;;;;;;4.85;3.50;;;;;;;;;;5026813;28;20411;-68
2022/04/18 13:42:43;;;;;;;4.90;3.45;;;;;;;;;;5021820;28;20360;-68
2022/04/18 13:45:11;;;;;;;5.00;3.42;;;;;;;;;;5027132;28;20182;-68
2022/04/18 13:47:38;;;;;;;4.80;3.25;;;;;;;;;;5021083;28;20467;-68
2022/04/18 13:50:05;;;;;;;4.18;3.00;;;;;;;;;;5020162;28;20228;-67
2022/04/18 13:52:31;;;;;;;7.78;3.28;;;;;;;;;;5022388;28;20252;-68
2022/04/18 13:54:56;;;;;;;6.78;3.72;;;;;;;;;;5025380;28;20281;-67
2022/04/18 13:57:21;;;;;;;5.03;3.30;;;;;;;;;;5024038;28;20229;-67
2022/04/18 13:59:46;;;;;;;6.35;3.38;;;;;;;;;;5021109;28;20277;-65
2022/04/18 14:02:12;;;;;;;4.95;3.10;;;;;;;;;;5020223;28;20475;-66
2022/04/18 14:04:37;;;;;;;4.22;2.97;;;;;;;;;;5020101;28;20223;-66
2022/04/18 14:07:04;;;;;;;4.55;3.25;;;;;;;;;;5023110;28;20293;-65
2022/04/18 14:09:30;;;;;;;5.07;3.10;;;;;;;;;;5021656;28;20190;-67
2022/04/18 14:11:55;;;;;;;3.55;3.15;;;;;;;;;;5023817;28;20739;-65
2022/04/18 14:22:33;;;;;;;4.72;3.00;;;;;;;;;;5023894;28;20911;-65
2022/04/18 14:24:59;;;;;;;5.60;3.75;;;;;;;;;;5017012;28;20579;-65
2022/04/18 14:27:24;;;;;;;4.50;3.38;;;;;;;;;;5014338;28;20186;-65
2022/04/18 14:29:49;;;;;;;5.55;3.63;;;;;;;;;;5022353;28;20209;-65
2022/04/18 14:32:15;;;;;;;4.25;3.10;;;;;;;;;;5012855;28;20805;-66
2022/04/18 14:34:40;;;;;;;3.55;3.10;;;;;;;;;;5018930;28;20182;-66
2022/04/18 14:37:06;;;;;;;7.45;3.70;;;;;;;;;;4327852;28;10000859;-66
2022/04/18 14:39:31;;;;;;;4.07;3.47;;;;;;;;;;5020192;28;20273;-66
2022/04/18 14:41:56;;;;;;;4.65;3.70;;;;;;;;;;5029449;28;20654;-66
2022/04/18 14:44:22;;;;;;;5.55;3.30;;;;;;;;;;5024911;28;20669;-65
2022/04/18 14:46:47;;;;;;;5.40;3.30;;;;;;;;;;5024006;28;20182;-65
2022/04/18 14:49:13;;;;;;;4.45;3.75;;;;;;;;;;5026592;28;20196;-65
2022/04/18 14:51:40;;;;;;;4.13;3.47;;;;;;;;;;5026104;28;20782;-66
2022/04/18 14:54:05;;;;;;;4.28;3.42;;;;;;;;;;5023499;28;20170;-64
2022/04/18 14:56:30;;;;;;;4.13;3.03;;;;;;;;;;5023645;28;20263;-66
2022/04/18 14:58:56;;;;;;;4.35;3.38;;;;;;;;;;5026565;28;20189;-66